KBLM/BLM METAR and TAF weather

Enter ICAO airport designator
Station Type Date Time Source
KBLM METAR 2019/08/22 09:56 UTC NOAA

KBLM 220956Z AUTO 24005KT 4SM BR OVC003 23/22 A2987 RMK AO2 SLP113 T02280222


Station Type Date Time Source
KBLM Decoded METAR 2019/08/22 09:56 UTC NOAA

Station name not available
Aug 22, 2019 - 05:56 AM EDT / 2019.08.22 0956 UTC
Wind: from the WSW (240 degrees) at 6 MPH (5 KT):0
Visibility: 4 mile(s):0
Sky conditions: overcast
Weather: mist
Temperature: 73.0 F (22.8 C)
Dew Point: 72.0 F (22.2 C)
Relative Humidity: 96%
Pressure (altimeter): 29.87 in. Hg (1011 hPa)
ob: KBLM 220956Z AUTO 24005KT 4SM BR OVC003 23/22 A2987 RMK AO2 SLP113 T02280222
cycle: 10

Station Type Date Time Source
KBLM TAF UTC NOAA

Error!

Example: see airport list